createdAt,value
2023-10-12T00:00:49.629Z,4.85
2023-10-12T00:02:01.423Z,5.65
2023-10-12T00:03:05.424Z,4.95
2023-10-12T00:04:10.016Z,5.00
2023-10-12T00:05:18.895Z,4.95
2023-10-12T00:06:21.307Z,5.65
2023-10-12T00:07:36.495Z,5.57
2023-10-12T00:08:39.406Z,5.95
2023-10-12T00:09:42.230Z,6.25
2023-10-12T00:10:45.840Z,5.45
2023-10-12T00:11:57.392Z,5.22
2023-10-12T00:13:01.223Z,5.93
2023-10-12T00:14:03.840Z,5.28
2023-10-12T00:15:19.441Z,4.93
2023-10-12T00:16:22.570Z,5.38
2023-10-12T00:17:25.087Z,4.85
2023-10-12T00:18:27.553Z,4.97
2023-10-12T00:19:30.084Z,5.43
2023-10-12T00:20:32.432Z,5.13
2023-10-12T00:21:37.241Z,5.55
2023-10-12T00:22:39.715Z,5.38
2023-10-12T00:23:45.259Z,5.82
2023-10-12T00:24:47.583Z,5.65
2023-10-12T00:25:59.720Z,5.85
2023-10-12T00:27:03.729Z,5.25
2023-10-12T00:28:07.964Z,5.90
2023-10-12T00:29:11.740Z,5.47
2023-10-12T00:30:15.208Z,5.05
2023-10-12T00:31:21.117Z,6.32
2023-10-12T00:32:23.516Z,5.13
2023-10-12T00:33:26.013Z,5.10
2023-10-12T00:34:29.083Z,5.25
2023-10-12T00:35:34.006Z,6.00
2023-10-12T00:36:38.584Z,4.95
2023-10-12T00:37:42.484Z,5.53
2023-10-12T00:38:47.112Z,5.47
2023-10-12T00:39:59.808Z,5.00
2023-10-12T00:41:06.124Z,5.40
2023-10-12T00:42:09.071Z,5.22
2023-10-12T00:43:16.184Z,6.03
2023-10-12T00:44:20.920Z,5.57
2023-10-12T00:45:31.171Z,5.60
2023-10-12T00:46:41.796Z,5.60
2023-10-12T00:47:49.783Z,5.47
2023-10-12T00:48:58.650Z,5.53
2023-10-12T00:50:08.141Z,5.70
2023-10-12T00:51:15.855Z,5.28
2023-10-12T00:52:34.803Z,5.70
2023-10-12T00:53:38.468Z,5.53
2023-10-12T00:54:40.929Z,5.30
2023-10-12T00:55:44.997Z,6.47
2023-10-12T00:56:47.435Z,5.30
2023-10-12T00:57:53.891Z,5.32
2023-10-12T00:58:57.219Z,5.78
2023-10-12T00:59:59.820Z,6.68
2023-10-12T01:01:03.187Z,5.60
2023-10-12T01:02:10.200Z,5.50
2023-10-12T01:03:32.559Z,5.38
2023-10-12T01:04:35.822Z,5.93
2023-10-12T01:05:38.356Z,5.25
2023-10-12T01:06:42.084Z,5.25
2023-10-12T01:07:47.076Z,5.75
2023-10-12T01:08:49.707Z,5.25
2023-10-12T01:10:04.366Z,5.28
2023-10-12T01:11:09.135Z,5.20
2023-10-12T01:12:14.879Z,5.15
2023-10-12T01:13:17.411Z,5.65
2023-10-12T01:14:19.855Z,5.03
2023-10-12T01:15:28.214Z,5.13
2023-10-12T01:17:06.577Z,5.53
2023-10-12T01:18:12.518Z,4.82
2023-10-12T01:19:22.429Z,5.40
2023-10-12T01:20:28.040Z,5.18
2023-10-12T01:21:30.500Z,5.38
2023-10-12T01:22:33.250Z,5.05
2023-10-12T01:23:36.906Z,5.20
2023-10-12T01:24:45.544Z,5.32
2023-10-12T01:25:50.552Z,4.80
2023-10-12T01:26:54.420Z,5.10
2023-10-12T01:27:56.986Z,5.93
2023-10-12T01:29:01.583Z,5.03
2023-10-12T01:30:15.873Z,5.53
2023-10-12T01:31:29.227Z,5.30
2023-10-12T01:32:38.039Z,5.18
2023-10-12T01:33:42.873Z,4.97
2023-10-12T01:34:54.083Z,5.22
2023-10-12T01:35:57.534Z,5.38
2023-10-12T01:37:00.852Z,5.30
2023-10-12T01:38:06.331Z,5.93
2023-10-12T01:39:16.366Z,5.18
2023-10-12T01:40:23.260Z,5.70
2023-10-12T01:41:27.247Z,5.30
2023-10-12T01:42:43.909Z,5.80
2023-10-12T01:43:48.562Z,5.47
2023-10-12T01:44:52.700Z,5.13
2023-10-12T01:46:02.169Z,6.00
2023-10-12T01:47:05.762Z,4.95
2023-10-12T01:48:08.241Z,5.70
2023-10-12T01:49:12.545Z,5.25
2023-10-12T01:50:15.514Z,5.18
2023-10-12T01:51:25.922Z,4.78
2023-10-12T01:52:28.438Z,5.13
2023-10-12T01:53:33.524Z,5.00
2023-10-12T01:54:43.762Z,5.30
2023-10-12T01:55:46.157Z,5.88
2023-10-12T01:56:52.287Z,5.40
2023-10-12T01:57:57.844Z,4.75
2023-10-12T01:59:01.964Z,5.43
2023-10-12T02:00:09.191Z,5.82
2023-10-12T02:01:20.676Z,4.93
2023-10-12T02:02:23.124Z,5.72
2023-10-12T02:03:44.522Z,4.85
2023-10-12T02:04:49.323Z,4.63
2023-10-12T02:06:00.057Z,5.32
2023-10-12T02:07:05.244Z,5.35
2023-10-12T02:08:07.610Z,5.18
2023-10-12T02:09:10.362Z,5.20
2023-10-12T02:10:12.887Z,5.13
2023-10-12T02:11:19.340Z,5.20
2023-10-12T02:12:26.869Z,5.13
2023-10-12T02:13:35.148Z,4.45
2023-10-12T02:14:40.654Z,4.38
2023-10-12T02:15:43.154Z,4.35
2023-10-12T02:16:54.734Z,4.57
2023-10-12T02:18:00.479Z,4.97
2023-10-12T02:19:05.653Z,4.72
2023-10-12T02:20:12.636Z,4.97
2023-10-12T02:21:20.089Z,5.80
2023-10-12T02:22:30.721Z,5.20
2023-10-12T02:23:54.637Z,4.30
2023-10-12T02:25:19.900Z,4.47
2023-10-12T02:26:41.393Z,5.25
2023-10-12T02:27:55.465Z,4.45
2023-10-12T02:29:10.430Z,5.25
2023-10-12T02:30:19.998Z,4.82
2023-10-12T02:31:23.009Z,4.15
2023-10-12T02:32:26.220Z,4.47
2023-10-12T02:33:36.242Z,4.72
2023-10-12T02:34:42.651Z,4.70
2023-10-12T02:35:46.301Z,4.30
2023-10-12T02:37:02.357Z,4.35
2023-10-12T02:38:07.464Z,4.85
2023-10-12T02:39:16.545Z,4.93
2023-10-12T02:40:20.846Z,4.57
2023-10-12T02:41:25.810Z,4.32
2023-10-12T02:42:40.272Z,4.47
2023-10-12T02:43:51.395Z,4.55
2023-10-12T02:44:55.107Z,4.43
2023-10-12T02:46:08.131Z,4.57
2023-10-12T02:47:14.130Z,4.93
2023-10-12T02:48:24.795Z,4.75
2023-10-12T02:49:30.663Z,4.57
2023-10-12T02:50:39.558Z,4.68
2023-10-12T02:51:42.061Z,4.53
2023-10-12T02:52:47.652Z,4.55
2023-10-12T02:53:51.508Z,4.90
2023-10-12T02:54:57.063Z,4.72
2023-10-12T02:56:00.353Z,5.22
2023-10-12T02:57:05.347Z,5.68
2023-10-12T02:58:24.817Z,5.43
2023-10-12T02:59:27.990Z,4.32
2023-10-12T03:00:51.424Z,4.30
2023-10-12T03:02:13.679Z,4.70
2023-10-12T03:03:24.940Z,5.35
2023-10-12T03:04:30.306Z,4.60
2023-10-12T03:05:34.112Z,4.97
2023-10-12T03:06:53.961Z,4.85
2023-10-12T03:07:57.697Z,4.57
2023-10-12T03:09:15.834Z,4.60
2023-10-12T03:10:30.499Z,4.25
2023-10-12T03:11:34.082Z,5.13
2023-10-12T03:12:37.548Z,4.38
2023-10-12T03:13:44.099Z,4.72
2023-10-12T03:14:50.628Z,4.70
2023-10-12T03:16:01.511Z,4.50
2023-10-12T03:17:10.616Z,4.75
2023-10-12T03:18:13.828Z,4.90
2023-10-12T03:19:19.533Z,4.47
2023-10-12T03:20:25.221Z,4.25
2023-10-12T03:21:34.836Z,4.30
2023-10-12T03:22:38.053Z,5.18
2023-10-12T03:23:41.575Z,4.85
2023-10-12T03:24:46.823Z,5.55
2023-10-12T03:25:53.496Z,5.03
2023-10-12T03:27:04.850Z,4.95
2023-10-12T03:28:14.127Z,5.30
2023-10-12T03:29:20.281Z,4.07
2023-10-12T03:30:35.615Z,4.43
2023-10-12T03:31:47.234Z,4.15
2023-10-12T03:32:51.364Z,4.47
2023-10-12T03:33:56.983Z,4.32
2023-10-12T03:34:59.474Z,4.05
2023-10-12T03:36:24.132Z,4.50
2023-10-12T03:37:46.559Z,5.18
2023-10-12T03:38:59.704Z,4.15
2023-10-12T03:40:09.728Z,4.18
2023-10-12T03:41:24.687Z,4.15
2023-10-12T03:42:28.533Z,4.82
2023-10-12T03:43:33.746Z,4.97
2023-10-12T03:44:39.063Z,5.15
2023-10-12T03:46:01.477Z,4.60
2023-10-12T03:47:23.305Z,4.75
2023-10-12T03:48:26.580Z,4.25
2023-10-12T03:49:29.026Z,4.18
2023-10-12T03:50:38.032Z,5.03
2023-10-12T03:51:43.531Z,4.28
2023-10-12T03:52:53.565Z,4.78
2023-10-12T03:53:59.383Z,4.47
2023-10-12T03:55:05.131Z,4.22
2023-10-12T03:56:10.393Z,4.47
2023-10-12T03:57:21.431Z,4.97
2023-10-12T03:58:25.325Z,4.03
2023-10-12T03:59:32.751Z,4.80
2023-10-12T04:00:43.693Z,4.35
2023-10-12T04:01:48.058Z,4.38
2023-10-12T04:02:53.592Z,4.07
2023-10-12T04:04:20.968Z,4.38
2023-10-12T04:05:33.264Z,4.18
2023-10-12T04:06:54.140Z,4.65
2023-10-12T04:09:15.754Z,4.22
2023-10-12T04:10:45.826Z,4.80
2023-10-12T04:11:52.667Z,4.40
2023-10-12T04:13:08.784Z,4.45
2023-10-12T04:14:29.924Z,4.65
2023-10-12T04:15:38.072Z,4.13
2023-10-12T04:16:46.415Z,4.65
2023-10-12T04:17:49.653Z,4.03
2023-10-12T04:18:52.061Z,4.45
2023-10-12T04:20:06.133Z,4.70
2023-10-12T04:21:10.495Z,3.78
2023-10-12T04:22:26.706Z,4.68
2023-10-12T04:23:35.220Z,4.70
2023-10-12T04:24:48.717Z,4.47
2023-10-12T04:25:59.403Z,4.38
2023-10-12T04:28:25.001Z,3.92
2023-10-12T04:29:32.055Z,4.60
2023-10-12T04:30:43.784Z,4.10
2023-10-12T04:31:46.449Z,5.15
2023-10-12T04:32:52.554Z,5.18
2023-10-12T04:34:08.881Z,4.50
2023-10-12T04:35:21.169Z,4.80
2023-10-12T04:36:46.261Z,5.05
2023-10-12T04:37:48.760Z,4.10
2023-10-12T04:39:09.553Z,4.10
2023-10-12T04:41:40.254Z,4.43
2023-10-12T04:42:46.569Z,4.55
2023-10-12T04:43:55.492Z,5.30
2023-10-12T04:45:23.961Z,4.32
2023-10-12T04:46:26.530Z,4.10
2023-10-12T04:47:31.454Z,4.05
2023-10-12T04:48:34.147Z,4.15
2023-10-12T04:49:43.829Z,4.20
2023-10-12T04:50:53.797Z,4.28
2023-10-12T04:52:14.176Z,5.22
2023-10-12T04:53:16.637Z,5.65
2023-10-12T04:54:24.843Z,6.00
2023-10-12T04:55:30.231Z,7.53
2023-10-12T04:56:38.198Z,6.72
2023-10-12T04:57:44.771Z,8.98
2023-10-12T04:59:07.197Z,5.80
2023-10-12T05:00:09.829Z,7.13
2023-10-12T05:01:23.836Z,5.95
2023-10-12T05:02:30.469Z,5.20
2023-10-12T05:03:36.498Z,5.65
2023-10-12T05:04:42.450Z,5.15
2023-10-12T05:06:06.140Z,5.38
2023-10-12T05:07:18.382Z,4.10
2023-10-12T05:08:22.089Z,4.63
2023-10-12T05:09:27.994Z,4.32
2023-10-12T05:10:38.241Z,4.93
2023-10-12T05:11:40.943Z,4.55
2023-10-12T05:12:43.284Z,4.32
2023-10-12T05:13:45.758Z,4.30
2023-10-12T05:14:48.742Z,4.43
2023-10-12T05:15:57.719Z,4.50
2023-10-12T05:17:00.340Z,4.47
2023-10-12T05:18:04.410Z,3.65
2023-10-12T05:19:09.085Z,4.68
2023-10-12T05:20:12.025Z,3.90
2023-10-12T05:21:14.339Z,4.70
2023-10-12T05:22:16.890Z,4.45
2023-10-12T05:23:19.833Z,4.18
2023-10-12T05:24:25.041Z,4.53
2023-10-12T05:25:34.366Z,4.45
2023-10-12T05:26:38.017Z,4.57
2023-10-12T05:27:40.776Z,4.60
2023-10-12T05:28:56.947Z,4.55
2023-10-12T05:30:07.236Z,4.10
2023-10-12T05:31:10.078Z,4.05
2023-10-12T05:32:18.579Z,3.85
2023-10-12T05:33:36.471Z,4.00
2023-10-12T05:34:39.103Z,3.70
2023-10-12T05:35:55.106Z,4.10
2023-10-12T05:36:57.488Z,4.18
2023-10-12T05:37:59.938Z,4.22
2023-10-12T05:39:14.363Z,3.97
2023-10-12T05:40:19.826Z,4.38
2023-10-12T05:41:40.437Z,4.88
2023-10-12T05:42:46.907Z,4.35
2023-10-12T05:43:50.341Z,3.95
2023-10-12T05:44:54.804Z,3.92
2023-10-12T05:46:02.596Z,4.30
2023-10-12T05:47:05.271Z,4.95
2023-10-12T05:48:10.039Z,3.97
2023-10-12T05:49:15.436Z,4.00
2023-10-12T05:50:17.782Z,3.92
2023-10-12T05:51:22.744Z,4.13
2023-10-12T05:52:26.269Z,4.43
2023-10-12T05:53:30.125Z,4.25
2023-10-12T05:54:32.756Z,3.95
2023-10-12T05:55:35.514Z,3.78
2023-10-12T05:56:37.862Z,4.28
2023-10-12T05:57:40.377Z,3.88
2023-10-12T05:58:45.146Z,3.63
2023-10-12T05:59:48.262Z,4.03
2023-10-12T06:00:53.913Z,3.78
2023-10-12T06:01:56.614Z,4.78
2023-10-12T06:02:59.764Z,4.63
2023-10-12T06:04:09.787Z,4.25
2023-10-12T06:05:14.264Z,3.25
2023-10-12T06:06:17.131Z,4.13
2023-10-12T06:07:19.398Z,3.83
2023-10-12T06:08:26.108Z,4.97
2023-10-12T06:09:37.156Z,4.82
2023-10-12T06:10:43.132Z,3.60
2023-10-12T06:11:48.196Z,4.28
2023-10-12T06:12:50.728Z,3.38
2023-10-12T06:13:53.759Z,3.97
2023-10-12T06:14:56.900Z,4.07
2023-10-12T06:15:59.640Z,3.90
2023-10-12T06:17:10.284Z,4.25
2023-10-12T06:19:30.562Z,3.85
2023-10-12T06:20:37.933Z,4.13
2023-10-12T06:21:44.006Z,4.20
2023-10-12T06:22:48.487Z,3.50
2023-10-12T06:23:52.047Z,4.15
2023-10-12T06:24:54.923Z,4.15
2023-10-12T06:26:06.955Z,3.65
2023-10-12T06:27:36.868Z,4.47
2023-10-12T06:28:39.999Z,3.90
2023-10-12T06:29:42.586Z,4.30
2023-10-12T06:30:46.262Z,4.15
2023-10-12T06:31:53.471Z,3.67
2023-10-12T06:33:00.818Z,3.72
2023-10-12T06:34:11.767Z,3.70
2023-10-12T06:35:24.593Z,4.35
2023-10-12T06:36:38.961Z,3.97
2023-10-12T06:37:56.668Z,3.33
2023-10-12T06:39:24.542Z,4.25
2023-10-12T06:40:30.829Z,4.55
2023-10-12T06:41:36.334Z,4.03
2023-10-12T06:42:40.312Z,3.83
2023-10-12T06:43:42.694Z,4.60
2023-10-12T06:44:51.613Z,3.75
2023-10-12T06:45:55.699Z,3.75
2023-10-12T06:47:16.855Z,4.00
2023-10-12T06:48:31.970Z,4.65
2023-10-12T06:49:35.067Z,4.72
2023-10-12T06:50:37.389Z,4.20
2023-10-12T06:51:39.865Z,4.13
2023-10-12T06:52:44.224Z,4.25
2023-10-12T06:54:07.244Z,4.20
2023-10-12T06:55:10.574Z,3.92
2023-10-12T06:56:16.860Z,3.70
2023-10-12T06:57:19.549Z,3.65
2023-10-12T06:58:35.838Z,3.50
2023-10-12T06:59:39.330Z,3.83
2023-10-12T07:01:01.369Z,4.00
2023-10-12T07:02:12.777Z,5.05
2023-10-12T07:03:16.682Z,4.43
2023-10-12T07:04:22.849Z,4.45
2023-10-12T07:05:30.187Z,3.80
2023-10-12T07:06:32.884Z,3.88
2023-10-12T07:07:38.473Z,3.70
2023-10-12T07:08:43.997Z,3.42
2023-10-12T07:09:48.198Z,4.72
2023-10-12T07:10:55.553Z,4.07
2023-10-12T07:11:57.815Z,3.80
2023-10-12T07:13:04.405Z,3.90
2023-10-12T07:14:07.056Z,4.68
2023-10-12T07:15:21.419Z,4.50
2023-10-12T07:16:24.141Z,4.75
2023-10-12T07:17:33.899Z,3.90
2023-10-12T07:18:36.654Z,3.80
2023-10-12T07:19:48.510Z,3.85
2023-10-12T07:20:51.204Z,4.00
2023-10-12T07:21:55.175Z,3.75
2023-10-12T07:23:01.357Z,4.05
2023-10-12T07:24:08.882Z,4.20
2023-10-12T07:25:11.382Z,4.10
2023-10-12T07:26:14.273Z,4.35
2023-10-12T07:27:20.042Z,3.97
2023-10-12T07:28:34.750Z,4.05
2023-10-12T07:29:38.307Z,4.07
2023-10-12T07:30:44.674Z,3.35
2023-10-12T07:31:51.342Z,4.45
2023-10-12T07:32:56.747Z,3.97
2023-10-12T07:33:59.312Z,3.70
2023-10-12T07:35:19.264Z,4.20
2023-10-12T07:36:37.463Z,4.07
2023-10-12T07:37:43.500Z,4.40
2023-10-12T07:39:08.864Z,3.60
2023-10-12T07:40:35.282Z,3.50
2023-10-12T07:41:42.661Z,3.58
2023-10-12T07:42:48.729Z,4.75
2023-10-12T07:43:51.220Z,4.30
2023-10-12T07:44:57.747Z,4.70
2023-10-12T07:46:26.096Z,4.25
2023-10-12T07:47:41.901Z,3.70
2023-10-12T07:48:46.234Z,4.35
2023-10-12T07:49:50.306Z,5.50
2023-10-12T07:50:52.671Z,4.03
2023-10-12T07:52:05.422Z,4.72
2023-10-12T07:53:09.333Z,3.63
2023-10-12T07:54:31.715Z,3.28
2023-10-12T07:55:43.094Z,4.10
2023-10-12T07:56:51.062Z,3.95
2023-10-12T07:57:53.621Z,4.45
2023-10-12T07:58:58.994Z,3.83
2023-10-12T08:00:21.498Z,5.32
2023-10-12T08:01:26.642Z,4.28
2023-10-12T08:03:04.637Z,3.92
2023-10-12T08:04:21.115Z,4.10
2023-10-12T08:05:26.606Z,3.65
2023-10-12T08:06:46.679Z,3.95
2023-10-12T08:08:01.020Z,4.18
2023-10-12T08:09:22.457Z,3.90
2023-10-12T08:10:32.001Z,4.40
2023-10-12T08:11:36.574Z,4.03
2023-10-12T08:12:39.008Z,4.40
2023-10-12T08:13:49.214Z,4.38
2023-10-12T08:14:56.197Z,3.80
2023-10-12T08:16:00.427Z,4.38
2023-10-12T08:17:21.794Z,4.38
2023-10-12T08:18:47.501Z,4.13
2023-10-12T08:19:57.013Z,3.63
2023-10-12T08:21:01.935Z,4.13
2023-10-12T08:22:11.580Z,4.30
2023-10-12T08:23:19.176Z,4.10
2023-10-12T08:24:21.832Z,5.43
2023-10-12T08:25:29.353Z,3.85
2023-10-12T08:26:36.657Z,3.97
2023-10-12T08:27:53.806Z,3.75
2023-10-12T08:28:58.737Z,4.30
2023-10-12T08:30:12.845Z,5.47
2023-10-12T08:31:17.131Z,4.10
2023-10-12T08:32:29.673Z,3.58
2023-10-12T08:33:50.262Z,3.65
2023-10-12T08:35:03.798Z,3.90
2023-10-12T08:36:18.277Z,4.30
2023-10-12T08:37:20.806Z,4.55
2023-10-12T08:38:41.768Z,3.55
2023-10-12T08:41:16.299Z,4.05
2023-10-12T08:42:38.699Z,3.63
2023-10-12T08:43:47.286Z,3.83
2023-10-12T08:45:00.240Z,4.05
2023-10-12T08:46:08.127Z,3.50
2023-10-12T08:47:11.245Z,4.28
2023-10-12T08:48:18.608Z,3.75
2023-10-12T08:49:35.844Z,4.22
2023-10-12T08:50:49.175Z,3.78
2023-10-12T08:52:07.399Z,4.30
2023-10-12T08:53:10.650Z,4.28
2023-10-12T08:54:18.455Z,4.22
2023-10-12T08:55:25.979Z,4.15
2023-10-12T08:56:33.958Z,4.53
2023-10-12T08:57:57.136Z,4.03
2023-10-12T08:59:02.251Z,4.03
2023-10-12T09:00:26.754Z,4.40
2023-10-12T09:01:33.173Z,4.20
2023-10-12T09:02:40.448Z,4.28
2023-10-12T09:03:46.142Z,3.95
2023-10-12T09:04:50.481Z,4.18
2023-10-12T09:05:53.661Z,4.05
2023-10-12T09:06:57.459Z,4.68
2023-10-12T09:08:25.808Z,4.28
2023-10-12T09:09:46.576Z,4.43
2023-10-12T09:11:05.296Z,3.90
2023-10-12T09:12:15.242Z,4.13
2023-10-12T09:13:19.128Z,3.75
2023-10-12T09:14:27.407Z,3.33
2023-10-12T09:15:39.897Z,3.65
2023-10-12T09:16:44.833Z,4.35
2023-10-12T09:17:48.029Z,4.55
2023-10-12T09:18:58.476Z,4.43
2023-10-12T09:20:31.145Z,4.10
2023-10-12T09:21:48.571Z,5.07
2023-10-12T09:22:58.586Z,3.72
2023-10-12T09:24:32.310Z,4.00
2023-10-12T09:26:03.330Z,4.00
2023-10-12T09:27:15.596Z,4.00
2023-10-12T09:28:20.031Z,3.72
2023-10-12T09:29:22.347Z,3.78
2023-10-12T09:30:28.080Z,4.40
2023-10-12T09:31:31.617Z,3.97
2023-10-12T09:32:44.004Z,4.35
2023-10-12T09:33:46.613Z,3.72
2023-10-12T09:35:11.114Z,4.40
2023-10-12T09:36:14.798Z,4.50
2023-10-12T09:37:18.169Z,3.78
2023-10-12T09:38:20.599Z,4.13
2023-10-12T09:39:28.373Z,4.28
2023-10-12T09:40:40.430Z,4.03
2023-10-12T09:41:55.817Z,3.63
2023-10-12T09:43:07.495Z,3.95
2023-10-12T09:44:13.226Z,3.83
2023-10-12T09:46:26.877Z,3.67
2023-10-12T09:47:50.706Z,3.67
2023-10-12T09:49:08.273Z,3.90
2023-10-12T09:50:14.888Z,3.72
2023-10-12T09:51:18.685Z,3.70
2023-10-12T09:52:24.900Z,4.18
2023-10-12T09:53:39.857Z,4.30
2023-10-12T09:55:08.866Z,3.65
2023-10-12T09:56:19.477Z,3.60
2023-10-12T09:58:28.940Z,3.65
2023-10-12T09:59:38.700Z,3.50
2023-10-12T10:01:02.774Z,3.80
2023-10-12T10:02:34.890Z,4.00
2023-10-12T10:03:49.342Z,4.28
2023-10-12T10:05:02.469Z,3.70
2023-10-12T10:06:21.285Z,3.63
2023-10-12T10:07:28.678Z,3.83
2023-10-12T10:08:31.791Z,3.90
2023-10-12T10:09:37.761Z,3.50
2023-10-12T10:10:40.375Z,3.17
2023-10-12T10:11:42.978Z,3.03
2023-10-12T10:12:46.063Z,2.97
2023-10-12T10:13:51.135Z,3.38
2023-10-12T10:14:55.683Z,2.60
2023-10-12T10:15:58.427Z,2.55
2023-10-12T10:17:01.832Z,2.40
2023-10-12T10:18:06.215Z,2.30
2023-10-12T10:19:15.464Z,2.28
2023-10-12T10:20:24.969Z,2.00
2023-10-12T10:21:34.146Z,2.35
2023-10-12T10:22:39.937Z,2.28
2023-10-12T10:23:50.069Z,2.20
2023-10-12T10:24:57.041Z,2.20
2023-10-12T10:26:22.791Z,2.08
2023-10-12T10:27:35.778Z,1.75
2023-10-12T10:28:38.294Z,2.30
2023-10-12T10:29:45.973Z,1.67
2023-10-12T10:30:51.421Z,1.30
2023-10-12T10:31:54.077Z,1.65
2023-10-12T10:33:13.907Z,2.00
2023-10-12T10:34:24.906Z,1.65
2023-10-12T10:36:02.737Z,1.45
2023-10-12T10:37:05.692Z,1.50
2023-10-12T10:38:08.896Z,1.77
2023-10-12T10:39:14.357Z,1.58
2023-10-12T10:40:18.998Z,1.40
2023-10-12T10:41:39.957Z,2.50
2023-10-12T10:42:46.706Z,2.10
2023-10-12T10:43:48.988Z,1.75
2023-10-12T10:44:54.068Z,2.35
2023-10-12T10:45:58.438Z,1.83
2023-10-12T10:47:11.212Z,2.15
2023-10-12T10:48:32.954Z,1.73
2023-10-12T10:49:37.934Z,1.42
2023-10-12T10:50:50.563Z,1.50
2023-10-12T10:52:05.027Z,2.10
2023-10-12T10:53:09.577Z,1.70
2023-10-12T10:54:19.814Z,2.00
2023-10-12T10:55:25.591Z,2.13
2023-10-12T10:56:36.744Z,1.35
2023-10-12T10:57:39.860Z,1.85
2023-10-12T10:58:43.231Z,1.73
2023-10-12T10:59:48.342Z,2.03
2023-10-12T11:00:57.944Z,1.88
2023-10-12T11:02:03.960Z,2.20
2023-10-12T11:03:06.605Z,1.67
2023-10-12T11:04:20.012Z,1.58
2023-10-12T11:05:30.069Z,2.33
2023-10-12T11:06:32.540Z,2.05
2023-10-12T11:07:35.175Z,1.45
2023-10-12T11:08:37.503Z,1.58
2023-10-12T11:09:51.159Z,2.05
2023-10-12T11:11:12.617Z,1.77
2023-10-12T11:12:15.853Z,1.13
2023-10-12T11:13:19.906Z,1.98
2023-10-12T11:14:25.879Z,1.63
2023-10-12T11:15:28.835Z,1.60
2023-10-12T11:16:31.212Z,2.05
2023-10-12T11:17:42.795Z,1.52
2023-10-12T11:18:45.433Z,1.63
2023-10-12T11:19:51.086Z,2.25
2023-10-12T11:20:58.747Z,1.92
2023-10-12T11:22:01.259Z,1.88
2023-10-12T11:23:09.043Z,1.85
2023-10-12T11:24:11.825Z,1.65
2023-10-12T11:25:14.321Z,1.60
2023-10-12T11:26:19.440Z,2.10
2023-10-12T11:27:35.916Z,1.80
2023-10-12T11:28:39.152Z,2.10
2023-10-12T11:29:53.782Z,2.10
2023-10-12T11:31:08.694Z,2.63
2023-10-12T11:32:17.817Z,1.60
2023-10-12T11:33:30.874Z,2.13
2023-10-12T11:34:34.665Z,1.80
2023-10-12T11:35:42.368Z,1.98
2023-10-12T11:36:47.280Z,2.03
2023-10-12T11:37:49.781Z,1.67
2023-10-12T11:39:17.881Z,1.58
2023-10-12T11:40:31.066Z,1.63
2023-10-12T11:41:35.802Z,1.75
2023-10-12T11:42:54.461Z,1.90
2023-10-12T11:44:01.904Z,1.60
2023-10-12T11:45:10.540Z,1.33
2023-10-12T11:46:15.995Z,1.83
2023-10-12T11:47:18.590Z,1.77
2023-10-12T11:48:22.682Z,1.88
2023-10-12T11:49:25.069Z,1.90
2023-10-12T11:50:33.912Z,1.70
2023-10-12T11:51:41.968Z,1.55
2023-10-12T11:52:51.618Z,2.03
2023-10-12T11:53:54.548Z,1.77
2023-10-12T11:55:20.040Z,1.60
2023-10-12T11:56:26.582Z,2.10
2023-10-12T11:57:28.935Z,1.50
2023-10-12T11:58:32.766Z,1.90
2023-10-12T11:59:36.727Z,1.80
2023-10-12T12:00:39.315Z,2.03
2023-10-12T12:01:41.892Z,2.38
2023-10-12T12:02:46.049Z,2.20
2023-10-12T12:03:49.104Z,2.30
2023-10-12T12:05:06.083Z,1.83
2023-10-12T12:06:13.692Z,2.33
2023-10-12T12:07:16.790Z,2.65
2023-10-12T12:08:19.895Z,2.28
2023-10-12T12:09:24.017Z,2.53
2023-10-12T12:10:46.950Z,2.75
2023-10-12T12:11:49.423Z,2.22
2023-10-12T12:12:53.477Z,2.17
2023-10-12T12:13:55.970Z,2.80
2023-10-12T12:14:58.599Z,3.05
2023-10-12T12:16:01.040Z,2.60
2023-10-12T12:17:05.482Z,3.25
2023-10-12T12:18:15.637Z,2.15
2023-10-12T12:19:25.318Z,1.88
2023-10-12T12:20:27.737Z,2.10
2023-10-12T12:21:35.815Z,2.70
2023-10-12T12:22:44.415Z,2.60
2023-10-12T12:23:49.881Z,2.75
2023-10-12T12:24:52.371Z,2.47
2023-10-12T12:26:15.743Z,2.30
2023-10-12T12:27:44.580Z,2.03
2023-10-12T12:28:49.245Z,2.45
2023-10-12T12:30:08.777Z,2.08
2023-10-12T12:31:17.151Z,2.35
2023-10-12T12:32:19.936Z,2.60
2023-10-12T12:33:24.301Z,2.50
2023-10-12T12:34:39.610Z,2.13
2023-10-12T12:35:42.239Z,2.38
2023-10-12T12:36:44.544Z,2.55
2023-10-12T12:37:46.986Z,2.03
2023-10-12T12:38:54.272Z,2.70
2023-10-12T12:40:28.745Z,2.53
2023-10-12T12:41:31.581Z,2.47
2023-10-12T12:42:34.026Z,2.47
2023-10-12T12:43:36.471Z,2.17
2023-10-12T12:44:41.038Z,2.15
2023-10-12T12:45:44.180Z,2.67
2023-10-12T12:46:46.528Z,2.38
2023-10-12T12:47:48.964Z,2.15
2023-10-12T12:48:51.918Z,2.33
2023-10-12T12:49:56.025Z,2.28
2023-10-12T12:50:59.017Z,3.08
2023-10-12T12:52:02.054Z,2.38
2023-10-12T12:53:07.753Z,1.63
2023-10-12T12:54:10.561Z,1.90
2023-10-12T12:55:13.036Z,1.83
2023-10-12T12:56:16.919Z,1.70
2023-10-12T12:57:19.445Z,1.90
2023-10-12T12:58:25.351Z,1.40
2023-10-12T12:59:29.583Z,1.60
2023-10-12T13:00:35.070Z,1.20
2023-10-12T13:01:40.370Z,1.67
2023-10-12T13:02:42.885Z,1.80
2023-10-12T13:03:46.858Z,1.50
2023-10-12T13:04:49.705Z,1.65
2023-10-12T13:05:52.069Z,0.90
2023-10-12T13:07:05.256Z,1.23
2023-10-12T13:08:09.229Z,1.23
2023-10-12T13:09:29.779Z,1.30
2023-10-12T13:10:32.320Z,1.23
2023-10-12T13:11:34.904Z,0.88
2023-10-12T13:12:37.517Z,1.15
2023-10-12T13:13:41.011Z,1.05
2023-10-12T13:14:43.998Z,1.42
2023-10-12T13:15:49.606Z,1.25
2023-10-12T13:16:54.077Z,1.02
2023-10-12T13:17:57.692Z,0.90
2023-10-12T13:19:01.560Z,1.30
2023-10-12T13:20:04.282Z,1.40
2023-10-12T13:21:13.963Z,2.22
2023-10-12T13:22:16.267Z,2.55
2023-10-12T13:23:18.779Z,3.38
2023-10-12T13:24:21.713Z,4.70
2023-10-12T13:25:27.588Z,5.75
2023-10-12T13:26:29.975Z,6.07
2023-10-12T13:27:33.590Z,6.05
2023-10-12T13:28:36.622Z,3.80
2023-10-12T13:29:39.264Z,2.03
2023-10-12T13:30:42.131Z,1.75
2023-10-12T13:31:44.653Z,1.50
2023-10-12T13:32:53.688Z,1.67
2023-10-12T13:33:56.084Z,1.27
2023-10-12T13:34:59.359Z,1.05
2023-10-12T13:36:02.396Z,1.58
2023-10-12T13:37:04.729Z,1.98
2023-10-12T13:38:10.774Z,1.60
2023-10-12T13:39:13.282Z,1.80
2023-10-12T13:40:18.480Z,1.13
2023-10-12T13:41:22.376Z,1.83
2023-10-12T13:42:25.253Z,1.23
2023-10-12T13:43:33.352Z,1.30
2023-10-12T13:44:35.678Z,1.42
2023-10-12T13:45:37.986Z,1.05
2023-10-12T13:46:40.365Z,1.20
2023-10-12T13:47:43.496Z,1.10
2023-10-12T13:48:48.502Z,1.08
2023-10-12T13:49:51.090Z,1.20
2023-10-12T13:50:54.908Z,1.05
2023-10-12T13:51:57.468Z,1.27
2023-10-12T13:53:01.676Z,0.95
2023-10-12T13:54:05.794Z,1.20
2023-10-12T13:55:13.072Z,1.50
2023-10-12T13:56:16.144Z,1.58
2023-10-12T13:57:18.621Z,1.30
2023-10-12T13:58:26.282Z,1.50
2023-10-12T13:59:29.286Z,1.52
2023-10-12T14:00:35.594Z,1.55
2023-10-12T14:01:38.552Z,1.55
2023-10-12T14:02:43.397Z,1.45
2023-10-12T14:03:47.249Z,1.40
2023-10-12T14:04:50.802Z,1.30
2023-10-12T14:05:53.046Z,1.92
2023-10-12T14:07:02.584Z,1.70
2023-10-12T14:08:05.863Z,1.20
2023-10-12T14:09:12.736Z,3.55
2023-10-12T14:10:15.878Z,3.42
2023-10-12T14:11:19.044Z,2.25
2023-10-12T14:12:22.308Z,1.80
2023-10-12T14:13:25.074Z,1.55
2023-10-12T14:14:28.387Z,1.58
2023-10-12T14:15:31.129Z,1.60
2023-10-12T14:16:34.677Z,1.52
2023-10-12T14:17:37.292Z,1.80
2023-10-12T14:18:40.547Z,1.35
2023-10-12T14:19:43.014Z,1.30
2023-10-12T14:20:46.547Z,1.35
2023-10-12T14:21:51.940Z,1.73
2023-10-12T14:23:07.251Z,1.67
2023-10-12T14:24:10.035Z,1.20
2023-10-12T14:25:19.190Z,1.25
2023-10-12T14:26:24.321Z,1.40
2023-10-12T14:27:26.934Z,1.35
2023-10-12T14:28:35.955Z,1.40
2023-10-12T14:29:38.491Z,1.40
2023-10-12T14:30:41.030Z,2.00
2023-10-12T14:31:44.947Z,1.50
2023-10-12T14:32:50.372Z,1.75
2023-10-12T14:33:55.543Z,2.35
2023-10-12T14:34:58.024Z,2.65
2023-10-12T14:36:00.452Z,2.20
2023-10-12T14:37:03.936Z,2.75
2023-10-12T14:38:10.233Z,2.05
2023-10-12T14:39:24.233Z,3.03
2023-10-12T14:40:33.113Z,2.28
2023-10-12T14:41:36.868Z,2.00
2023-10-12T14:42:42.231Z,1.95
2023-10-12T14:43:49.124Z,4.32
2023-10-12T14:44:53.130Z,4.10
2023-10-12T14:45:59.804Z,4.72
2023-10-12T14:47:08.403Z,3.58
2023-10-12T14:48:11.038Z,3.65
2023-10-12T14:49:13.517Z,3.00
2023-10-12T14:50:17.542Z,3.95
2023-10-12T14:51:22.114Z,3.10
2023-10-12T14:52:24.427Z,2.80
2023-10-12T14:53:29.401Z,2.83
2023-10-12T14:54:32.282Z,2.92
2023-10-12T14:55:34.680Z,3.05
2023-10-12T14:56:39.350Z,2.88
2023-10-12T14:57:42.437Z,2.00
2023-10-12T14:58:44.762Z,2.50
2023-10-12T14:59:49.328Z,1.70
2023-10-12T15:00:52.229Z,2.17
2023-10-12T15:01:54.630Z,1.80
2023-10-12T15:02:58.684Z,1.83
2023-10-12T15:04:01.486Z,1.55
2023-10-12T15:05:07.295Z,2.05
2023-10-12T15:06:09.666Z,2.50
2023-10-12T15:07:14.853Z,2.50
2023-10-12T15:08:19.185Z,2.40
2023-10-12T15:09:27.545Z,1.70
2023-10-12T15:10:30.012Z,1.63
2023-10-12T15:11:34.751Z,1.88